sensor_id;sensor_type;location;lat;lon;timestamp;pressure;altitude;pressure_sealevel;temperature;humidity
49461;BME280;35355;49.198;-0.368;2023-05-17T00:00:59;102065.88;;;12.75;62.93
49461;BME280;35355;49.198;-0.368;2023-05-17T00:03:25;102065.06;;;12.74;63.08
49461;BME280;35355;49.198;-0.368;2023-05-17T00:05:50;102066.69;;;12.75;63.13
49461;BME280;35355;49.198;-0.368;2023-05-17T00:08:16;102063.38;;;12.73;63.19
49461;BME280;35355;49.198;-0.368;2023-05-17T00:10:41;102060.41;;;12.75;63.18
49461;BME280;35355;49.198;-0.368;2023-05-17T00:13:07;102056.22;;;12.72;62.79
49461;BME280;35355;49.198;-0.368;2023-05-17T00:15:32;102056.72;;;12.69;63.11
49461;BME280;35355;49.198;-0.368;2023-05-17T00:17:58;102054.59;;;12.71;63.30
49461;BME280;35355;49.198;-0.368;2023-05-17T00:20:23;102048.50;;;12.69;63.43
49461;BME280;35355;49.198;-0.368;2023-05-17T00:22:48;102053.97;;;12.69;63.36
49461;BME280;35355;49.198;-0.368;2023-05-17T00:25:14;102051.25;;;12.69;63.22
49461;BME280;35355;49.198;-0.368;2023-05-17T00:27:39;102051.72;;;12.66;63.17
49461;BME280;35355;49.198;-0.368;2023-05-17T00:30:05;102041.25;;;12.63;63.04
49461;BME280;35355;49.198;-0.368;2023-05-17T00:32:31;102037.94;;;12.61;63.13
49461;BME280;35355;49.198;-0.368;2023-05-17T00:34:56;102044.75;;;12.58;62.90
49461;BME280;35355;49.198;-0.368;2023-05-17T00:37:22;102046.03;;;12.56;63.25
49461;BME280;35355;49.198;-0.368;2023-05-17T00:39:47;102037.75;;;12.51;63.18
49461;BME280;35355;49.198;-0.368;2023-05-17T00:42:13;102041.63;;;12.55;63.55
49461;BME280;35355;49.198;-0.368;2023-05-17T00:44:38;102046.03;;;12.56;63.37
49461;BME280;35355;49.198;-0.368;2023-05-17T00:47:04;102043.91;;;12.58;63.49
49461;BME280;35355;49.198;-0.368;2023-05-17T00:49:29;102047.47;;;12.58;63.21
49461;BME280;35355;49.198;-0.368;2023-05-17T00:51:55;102051.03;;;12.59;63.36
49461;BME280;35355;49.198;-0.368;2023-05-17T00:54:21;102058.75;;;12.62;63.61
49461;BME280;35355;49.198;-0.368;2023-05-17T00:56:47;102051.66;;;12.61;63.71
49461;BME280;35355;49.198;-0.368;2023-05-17T00:59:13;102057.94;;;12.61;63.70
49461;BME280;35355;49.198;-0.368;2023-05-17T01:01:43;102058.19;;;12.60;63.43
49461;BME280;35355;49.198;-0.368;2023-05-17T01:04:09;102049.41;;;12.58;63.14
49461;BME280;35355;49.198;-0.368;2023-05-17T01:06:37;102065.81;;;12.58;63.46
49461;BME280;35355;49.198;-0.368;2023-05-17T01:09:03;102047.34;;;12.53;63.51
49461;BME280;35355;49.198;-0.368;2023-05-17T01:14:37;102058.56;;;12.52;62.98
49461;BME280;35355;49.198;-0.368;2023-05-17T01:17:15;102063.22;;;12.51;63.54
49461;BME280;35355;49.198;-0.368;2023-05-17T01:20:04;102050.81;;;12.49;63.16
49461;BME280;35355;49.198;-0.368;2023-05-17T01:27:54;102048.69;;;12.51;63.99
49461;BME280;35355;49.198;-0.368;2023-05-17T01:30:24;102049.53;;;12.51;64.25
49461;BME280;35355;49.198;-0.368;2023-05-17T01:32:52;102042.97;;;12.52;64.38
49461;BME280;35355;49.198;-0.368;2023-05-17T01:35:20;102033.66;;;12.53;64.20
49461;BME280;35355;49.198;-0.368;2023-05-17T01:37:45;102045.47;;;12.54;64.37
49461;BME280;35355;49.198;-0.368;2023-05-17T01:40:11;102048.78;;;12.56;64.48
49461;BME280;35355;49.198;-0.368;2023-05-17T01:42:38;102041.41;;;12.56;64.64
49461;BME280;35355;49.198;-0.368;2023-05-17T01:45:20;102039.25;;;12.58;64.60
49461;BME280;35355;49.198;-0.368;2023-05-17T01:50:23;102043.19;;;12.62;64.89
49461;BME280;35355;49.198;-0.368;2023-05-17T01:52:53;102043.19;;;12.62;65.16
49461;BME280;35355;49.198;-0.368;2023-05-17T01:58:00;102044.00;;;12.63;65.26
49461;BME280;35355;49.198;-0.368;2023-05-17T02:00:28;102047.00;;;12.61;65.00
49461;BME280;35355;49.198;-0.368;2023-05-17T02:02:53;102050.53;;;12.62;64.93
49461;BME280;35355;49.198;-0.368;2023-05-17T02:05:19;102055.19;;;12.61;65.03
49461;BME280;35355;49.198;-0.368;2023-05-17T02:07:44;102047.81;;;12.62;65.37
49461;BME280;35355;49.198;-0.368;2023-05-17T02:10:10;102048.91;;;12.61;65.23
49461;BME280;35355;49.198;-0.368;2023-05-17T02:12:35;102049.97;;;12.60;65.44
49461;BME280;35355;49.198;-0.368;2023-05-17T02:15:01;102053.78;;;12.59;65.23
49461;BME280;35355;49.198;-0.368;2023-05-17T02:17:26;102049.41;;;12.58;65.07
49461;BME280;35355;49.198;-0.368;2023-05-17T02:19:51;102045.22;;;12.55;65.26
49461;BME280;35355;49.198;-0.368;2023-05-17T02:22:17;102055.13;;;12.56;65.40
49461;BME280;35355;49.198;-0.368;2023-05-17T02:24:42;102049.84;;;12.55;65.11
49461;BME280;35355;49.198;-0.368;2023-05-17T02:27:08;102046.53;;;12.53;65.25
49461;BME280;35355;49.198;-0.368;2023-05-17T02:29:33;102053.06;;;12.52;65.10
49461;BME280;35355;49.198;-0.368;2023-05-17T02:31:58;102053.06;;;12.52;65.50
49461;BME280;35355;49.198;-0.368;2023-05-17T02:34:24;102057.97;;;12.50;65.34
49461;BME280;35355;49.198;-0.368;2023-05-17T02:36:49;102052.50;;;12.50;65.38
49461;BME280;35355;49.198;-0.368;2023-05-17T02:39:14;102054.41;;;12.49;65.50
49461;BME280;35355;49.198;-0.368;2023-05-17T02:41:40;102053.56;;;12.49;65.53
49461;BME280;35355;49.198;-0.368;2023-05-17T02:44:05;102049.19;;;12.48;65.50
49461;BME280;35355;49.198;-0.368;2023-05-17T02:46:30;102051.31;;;12.45;65.72
49461;BME280;35355;49.198;-0.368;2023-05-17T02:48:56;102059.28;;;12.47;65.51
49461;BME280;35355;49.198;-0.368;2023-05-17T02:51:21;102049.63;;;12.44;65.77
49461;BME280;35355;49.198;-0.368;2023-05-17T02:53:46;102049.88;;;12.43;65.43
49461;BME280;35355;49.198;-0.368;2023-05-17T02:56:12;102058.59;;;12.40;65.35
49461;BME280;35355;49.198;-0.368;2023-05-17T02:58:37;102059.94;;;12.37;65.80
49461;BME280;35355;49.198;-0.368;2023-05-17T03:01:03;102055.28;;;12.38;65.92
49461;BME280;35355;49.198;-0.368;2023-05-17T03:03:28;102055.75;;;12.35;65.66
49461;BME280;35355;49.198;-0.368;2023-05-17T03:05:53;102049.47;;;12.34;65.54
49461;BME280;35355;49.198;-0.368;2023-05-17T03:08:19;102044.44;;;12.31;65.46
49461;BME280;35355;49.198;-0.368;2023-05-17T03:10:44;102046.84;;;12.27;65.67
49461;BME280;35355;49.198;-0.368;2023-05-17T03:13:09;102048.63;;;12.22;65.28
49461;BME280;35355;49.198;-0.368;2023-05-17T03:15:35;102053.41;;;12.15;65.44
49461;BME280;35355;49.198;-0.368;2023-05-17T03:18:00;102054.34;;;12.08;65.49
49461;BME280;35355;49.198;-0.368;2023-05-17T03:20:25;102055.09;;;12.04;65.22
49461;BME280;35355;49.198;-0.368;2023-05-17T03:22:51;102051.38;;;11.98;65.58
49461;BME280;35355;49.198;-0.368;2023-05-17T03:25:16;102051.63;;;11.97;65.36
49461;BME280;35355;49.198;-0.368;2023-05-17T03:27:42;102060.31;;;11.93;65.38
49461;BME280;35355;49.198;-0.368;2023-05-17T03:30:07;102057.22;;;11.90;65.59
49461;BME280;35355;49.198;-0.368;2023-05-17T03:32:33;102065.88;;;11.87;65.65
49461;BME280;35355;49.198;-0.368;2023-05-17T03:34:58;102071.34;;;11.87;65.75
49461;BME280;35355;49.198;-0.368;2023-05-17T03:37:24;102072.19;;;11.87;65.75
49461;BME280;35355;49.198;-0.368;2023-05-17T03:39:49;102069.69;;;11.86;65.75
49461;BME280;35355;49.198;-0.368;2023-05-17T03:42:15;102076.81;;;11.87;65.69
49461;BME280;35355;49.198;-0.368;2023-05-17T03:44:40;102071.34;;;11.87;66.12
49461;BME280;35355;49.198;-0.368;2023-05-17T03:47:05;102077.66;;;11.87;66.09
49461;BME280;35355;49.198;-0.368;2023-05-17T03:49:31;102082.28;;;11.87;65.98
49461;BME280;35355;49.198;-0.368;2023-05-17T03:51:56;102069.69;;;11.86;66.12
49461;BME280;35355;49.198;-0.368;2023-05-17T03:54:22;102081.22;;;11.88;66.02
49461;BME280;35355;49.198;-0.368;2023-05-17T03:56:47;102082.28;;;11.87;65.90
49461;BME280;35355;49.198;-0.368;2023-05-17T03:59:14;102087.75;;;11.87;65.97
49461;BME280;35355;49.198;-0.368;2023-05-17T04:01:40;102080.63;;;11.86;65.97
49461;BME280;35355;49.198;-0.368;2023-05-17T04:04:06;102087.75;;;11.87;65.96
49461;BME280;35355;49.198;-0.368;2023-05-17T04:06:31;102085.00;;;11.87;65.84
49461;BME280;35355;49.198;-0.368;2023-05-17T04:08:56;102091.59;;;11.86;65.99
49461;BME280;35355;49.198;-0.368;2023-05-17T04:11:24;102095.38;;;11.85;66.02
49461;BME280;35355;49.198;-0.368;2023-05-17T04:13:51;102093.22;;;11.87;66.24
49461;BME280;35355;49.198;-0.368;2023-05-17T04:16:17;102101.91;;;11.84;66.04
49461;BME280;35355;49.198;-0.368;2023-05-17T04:18:42;102105.03;;;11.87;66.44
49461;BME280;35355;49.198;-0.368;2023-05-17T04:21:09;102108.81;;;11.86;66.49
49461;BME280;35355;49.198;-0.368;2023-05-17T04:23:34;102109.63;;;11.87;66.30
49461;BME280;35355;49.198;-0.368;2023-05-17T04:26:00;102115.50;;;11.90;66.12
49461;BME280;35355;49.198;-0.368;2023-05-17T04:28:25;102117.41;;;11.90;66.23
49461;BME280;35355;49.198;-0.368;2023-05-17T04:30:51;102116.56;;;11.89;66.01
49461;BME280;35355;49.198;-0.368;2023-05-17T04:33:17;102128.34;;;11.90;65.95
49461;BME280;35355;49.198;-0.368;2023-05-17T04:35:43;102120.97;;;11.90;66.45
49461;BME280;35355;49.198;-0.368;2023-05-17T04:38:08;102124.28;;;11.92;66.46
49461;BME280;35355;49.198;-0.368;2023-05-17T04:40:34;102119.69;;;11.93;66.25
49461;BME280;35355;49.198;-0.368;2023-05-17T04:43:00;102129.94;;;11.98;66.67
49461;BME280;35355;49.198;-0.368;2023-05-17T04:45:25;102131.38;;;12.00;66.64
49461;BME280;35355;49.198;-0.368;2023-05-17T04:47:51;102136.94;;;12.05;66.43
49461;BME280;35355;49.198;-0.368;2023-05-17T04:50:17;102142.19;;;12.07;66.47
49461;BME280;35355;49.198;-0.368;2023-05-17T04:52:43;102137.28;;;12.09;66.75
49461;BME280;35355;49.198;-0.368;2023-05-17T04:55:08;102145.88;;;12.13;66.20
49461;BME280;35355;49.198;-0.368;2023-05-17T04:57:34;102150.28;;;12.14;66.37
49461;BME280;35355;49.198;-0.368;2023-05-17T05:00:02;102155.03;;;12.18;66.53
49461;BME280;35355;49.198;-0.368;2023-05-17T05:02:30;102146.13;;;12.23;66.29
49461;BME280;35355;49.198;-0.368;2023-05-17T05:04:55;102157.41;;;12.26;66.39
49461;BME280;35355;49.198;-0.368;2023-05-17T05:07:21;102156.09;;;12.29;66.43
49461;BME280;35355;49.198;-0.368;2023-05-17T05:09:46;102157.31;;;12.33;66.90
49461;BME280;35355;49.198;-0.368;2023-05-17T05:12:11;102166.09;;;12.35;66.51
49461;BME280;35355;49.198;-0.368;2023-05-17T05:14:37;102168.97;;;12.40;66.40
49461;BME280;35355;49.198;-0.368;2023-05-17T05:17:02;102170.13;;;12.44;66.71
49461;BME280;35355;49.198;-0.368;2023-05-17T05:19:27;102171.09;;;12.50;66.90
49461;BME280;35355;49.198;-0.368;2023-05-17T05:21:53;102181.09;;;12.56;66.83
49461;BME280;35355;49.198;-0.368;2023-05-17T05:24:18;102187.50;;;12.62;66.83
49461;BME280;35355;49.198;-0.368;2023-05-17T05:26:43;102192.06;;;12.68;66.73
49461;BME280;35355;49.198;-0.368;2023-05-17T05:29:09;102191.09;;;12.74;67.15
49461;BME280;35355;49.198;-0.368;2023-05-17T05:31:35;102193.09;;;12.79;66.83
49461;BME280;35355;49.198;-0.368;2023-05-17T05:34:00;102193.19;;;12.84;66.78
49461;BME280;35355;49.198;-0.368;2023-05-17T05:36:25;102193.91;;;12.91;67.16
49461;BME280;35355;49.198;-0.368;2023-05-17T05:38:51;102201.16;;;12.97;66.68
49461;BME280;35355;49.198;-0.368;2023-05-17T05:41:18;102213.06;;;13.03;66.75
49461;BME280;35355;49.198;-0.368;2023-05-17T05:43:43;102209.09;;;13.11;66.94
49461;BME280;35355;49.198;-0.368;2023-05-17T05:46:09;102218.00;;;13.18;66.80
49461;BME280;35355;49.198;-0.368;2023-05-17T05:48:34;102225.06;;;13.26;66.57
49461;BME280;35355;49.198;-0.368;2023-05-17T05:51:03;102226.44;;;13.40;66.31
49461;BME280;35355;49.198;-0.368;2023-05-17T05:53:28;102225.84;;;13.67;65.92
49461;BME280;35355;49.198;-0.368;2023-05-17T05:55:53;102227.81;;;14.00;65.74
49461;BME280;35355;49.198;-0.368;2023-05-17T05:58:19;102236.75;;;14.25;64.89
49461;BME280;35355;49.198;-0.368;2023-05-17T06:00:44;102242.38;;;14.35;64.33
49461;BME280;35355;49.198;-0.368;2023-05-17T06:03:10;102241.47;;;14.46;64.10
49461;BME280;35355;49.198;-0.368;2023-05-17T06:05:35;102242.78;;;14.61;63.83
49461;BME280;35355;49.198;-0.368;2023-05-17T06:08:00;102246.53;;;14.88;63.51
49461;BME280;35355;49.198;-0.368;2023-05-17T06:10:26;102251.38;;;15.25;62.92
49461;BME280;35355;49.198;-0.368;2023-05-17T06:12:51;102250.72;;;15.63;62.09
49461;BME280;35355;49.198;-0.368;2023-05-17T06:15:16;102256.50;;;15.88;61.38
49461;BME280;35355;49.198;-0.368;2023-05-17T06:17:42;102254.06;;;15.92;61.20
49461;BME280;35355;49.198;-0.368;2023-05-17T06:20:08;102258.72;;;15.91;60.94
49461;BME280;35355;49.198;-0.368;2023-05-17T06:22:33;102258.44;;;15.88;60.97
49461;BME280;35355;49.198;-0.368;2023-05-17T06:24:59;102254.59;;;15.89;61.19
49461;BME280;35355;49.198;-0.368;2023-05-17T06:27:25;102263.47;;;15.96;61.29
49461;BME280;35355;49.198;-0.368;2023-05-17T06:29:50;102267.16;;;16.07;60.85
49461;BME280;35355;49.198;-0.368;2023-05-17T06:32:16;102260.38;;;16.20;60.84
49461;BME280;35355;49.198;-0.368;2023-05-17T06:34:41;102265.44;;;16.33;60.61
49461;BME280;35355;49.198;-0.368;2023-05-17T06:37:07;102272.69;;;16.44;60.30
49461;BME280;35355;49.198;-0.368;2023-05-17T06:39:32;102270.00;;;16.55;59.90
49461;BME280;35355;49.198;-0.368;2023-05-17T06:41:58;102266.22;;;16.61;59.97
49461;BME280;35355;49.198;-0.368;2023-05-17T06:44:23;102267.38;;;16.70;59.55
49461;BME280;35355;49.198;-0.368;2023-05-17T06:46:48;102272.09;;;16.75;59.34
49461;BME280;35355;49.198;-0.368;2023-05-17T06:49:14;102268.84;;;16.83;58.83
49461;BME280;35355;49.198;-0.368;2023-05-17T06:51:39;102276.63;;;16.91;58.73
49461;BME280;35355;49.198;-0.368;2023-05-17T06:54:04;102270.56;;;16.94;58.24
49461;BME280;35355;49.198;-0.368;2023-05-17T06:56:30;102265.34;;;16.98;57.88
49461;BME280;35355;49.198;-0.368;2023-05-17T06:58:55;102273.38;;;16.99;57.49
49461;BME280;35355;49.198;-0.368;2023-05-17T07:01:21;102274.19;;;17.00;57.24
49461;BME280;35355;49.198;-0.368;2023-05-17T07:03:46;102271.69;;;16.98;56.35
49461;BME280;35355;49.198;-0.368;2023-05-17T07:06:11;102270.56;;;16.94;56.08
49461;BME280;35355;49.198;-0.368;2023-05-17T07:08:37;102270.28;;;16.91;55.90
49461;BME280;35355;49.198;-0.368;2023-05-17T07:11:04;102267.25;;;16.92;55.98
49461;BME280;35355;49.198;-0.368;2023-05-17T07:13:30;102280.50;;;16.95;55.38
49461;BME280;35355;49.198;-0.368;2023-05-17T07:15:55;102271.69;;;16.93;54.99
49461;BME280;35355;49.198;-0.368;2023-05-17T07:18:20;102282.72;;;16.93;54.73
49461;BME280;35355;49.198;-0.368;2023-05-17T07:20:46;102277.19;;;16.93;54.29
49461;BME280;35355;49.198;-0.368;2023-05-17T07:23:11;102289.59;;;16.96;54.04
49461;BME280;35355;49.198;-0.368;2023-05-17T07:25:36;102280.78;;;16.94;53.87
49461;BME280;35355;49.198;-0.368;2023-05-17T07:28:04;102281.66;;;16.99;53.91
49461;BME280;35355;49.198;-0.368;2023-05-17T07:30:30;102292.41;;;17.06;53.38
49461;BME280;35355;49.198;-0.368;2023-05-17T07:32:56;102291.34;;;17.12;53.20
49461;BME280;35355;49.198;-0.368;2023-05-17T07:35:21;102291.94;;;17.19;53.00
49461;BME280;35355;49.198;-0.368;2023-05-17T07:37:46;102289.22;;;17.25;52.64
49461;BME280;35355;49.198;-0.368;2023-05-17T07:40:12;102290.34;;;17.29;52.12
49461;BME280;35355;49.198;-0.368;2023-05-17T07:42:37;102291.72;;;17.31;52.03
49461;BME280;35355;49.198;-0.368;2023-05-17T07:45:03;102290.34;;;17.34;51.87
49461;BME280;35355;49.198;-0.368;2023-05-17T07:47:28;102292.28;;;17.39;51.42
49461;BME280;35355;49.198;-0.368;2023-05-17T07:49:54;102286.81;;;17.44;51.78
49461;BME280;35355;49.198;-0.368;2023-05-17T07:52:20;102288.19;;;17.46;50.83
49461;BME280;35355;49.198;-0.368;2023-05-17T07:54:45;102292.06;;;17.45;50.46
49461;BME280;35355;49.198;-0.368;2023-05-17T07:57:11;102292.34;;;17.44;50.26
49461;BME280;35355;49.198;-0.368;2023-05-17T07:59:36;102289.31;;;17.45;49.77
49461;BME280;35355;49.198;-0.368;2023-05-17T08:02:01;102296.19;;;17.48;49.37
49461;BME280;35355;49.198;-0.368;2023-05-17T08:04:27;102292.34;;;17.49;49.19
49461;BME280;35355;49.198;-0.368;2023-05-17T08:06:52;102294.81;;;17.50;49.24
49461;BME280;35355;49.198;-0.368;2023-05-17T08:09:19;102290.69;;;17.53;49.26
49461;BME280;35355;49.198;-0.368;2023-05-17T08:11:44;102295.13;;;17.54;47.96
49461;BME280;35355;49.198;-0.368;2023-05-17T08:14:14;102292.66;;;17.58;48.82
49461;BME280;35355;49.198;-0.368;2023-05-17T08:16:41;102290.19;;;17.61;47.95
49461;BME280;35355;49.198;-0.368;2023-05-17T08:19:06;102294.03;;;17.65;47.44
49461;BME280;35355;49.198;-0.368;2023-05-17T08:21:32;102289.38;;;17.71;47.21
49461;BME280;35355;49.198;-0.368;2023-05-17T08:23:57;102297.69;;;17.76;46.66
49461;BME280;35355;49.198;-0.368;2023-05-17T08:26:22;102299.91;;;17.79;46.35
49461;BME280;35355;49.198;-0.368;2023-05-17T08:28:48;102294.09;;;17.81;45.99
49461;BME280;35355;49.198;-0.368;2023-05-17T08:31:13;102293.56;;;17.84;45.75
49461;BME280;35355;49.198;-0.368;2023-05-17T08:33:38;102297.72;;;17.86;45.43
49461;BME280;35355;49.198;-0.368;2023-05-17T08:36:04;102299.63;;;17.86;45.37
49461;BME280;35355;49.198;-0.368;2023-05-17T08:38:32;102298.00;;;17.90;45.31
49461;BME280;35355;49.198;-0.368;2023-05-17T08:40:59;102296.63;;;17.93;45.06
49461;BME280;35355;49.198;-0.368;2023-05-17T08:43:24;102296.91;;;17.96;44.97
49461;BME280;35355;49.198;-0.368;2023-05-17T08:45:50;102297.75;;;17.97;44.78
49461;BME280;35355;49.198;-0.368;2023-05-17T08:48:17;102288.66;;;18.01;44.09
49461;BME280;35355;49.198;-0.368;2023-05-17T08:50:49;102293.31;;;18.01;44.46
49461;BME280;35355;49.198;-0.368;2023-05-17T08:53:16;102295.81;;;18.02;43.37
49461;BME280;35355;49.198;-0.368;2023-05-17T08:55:44;102291.09;;;17.98;43.38
49461;BME280;35355;49.198;-0.368;2023-05-17T08:58:12;102287.50;;;17.92;43.20
49461;BME280;35355;49.198;-0.368;2023-05-17T09:00:39;102288.63;;;17.91;43.27
49461;BME280;35355;49.198;-0.368;2023-05-17T09:03:04;102285.31;;;17.94;43.12
49461;BME280;35355;49.198;-0.368;2023-05-17T09:05:30;102287.53;;;17.97;42.89
49461;BME280;35355;49.198;-0.368;2023-05-17T09:07:56;102284.75;;;18.02;42.80
49461;BME280;35355;49.198;-0.368;2023-05-17T09:10:23;102289.22;;;18.09;42.13
49461;BME280;35355;49.198;-0.368;2023-05-17T09:12:49;102293.59;;;18.10;42.02
49461;BME280;35355;49.198;-0.368;2023-05-17T09:15:19;102286.44;;;18.09;42.28
49461;BME280;35355;49.198;-0.368;2023-05-17T09:17:54;102293.88;;;18.08;43.14
49461;BME280;35355;49.198;-0.368;2023-05-17T09:20:27;102282.81;;;18.08;42.28
49461;BME280;35355;49.198;-0.368;2023-05-17T09:23:00;102289.47;;;18.12;41.77
49461;BME280;35355;49.198;-0.368;2023-05-17T09:25:28;102289.22;;;18.19;42.02
49461;BME280;35355;49.198;-0.368;2023-05-17T09:27:54;102290.88;;;18.25;41.25
49461;BME280;35355;49.198;-0.368;2023-05-17T09:30:32;102293.63;;;18.25;42.49
49461;BME280;35355;49.198;-0.368;2023-05-17T09:33:05;102304.13;;;18.23;41.81
49461;BME280;35355;49.198;-0.368;2023-05-17T09:35:32;102293.91;;;18.23;40.92
49461;BME280;35355;49.198;-0.368;2023-05-17T09:38:08;102295.81;;;18.23;42.13
49461;BME280;35355;49.198;-0.368;2023-05-17T09:40:41;102291.97;;;18.24;41.76
49461;BME280;35355;49.198;-0.368;2023-05-17T09:43:07;102300.28;;;18.29;45.04
49461;BME280;35355;49.198;-0.368;2023-05-17T09:45:33;102296.09;;;18.32;41.24
49461;BME280;35355;49.198;-0.368;2023-05-17T09:50:35;102295.84;;;18.38;40.82
49461;BME280;35355;49.198;-0.368;2023-05-17T09:53:01;102294.75;;;18.39;40.58
49461;BME280;35355;49.198;-0.368;2023-05-17T09:55:26;102294.72;;;18.34;40.64
49461;BME280;35355;49.198;-0.368;2023-05-17T09:57:52;102289.19;;;18.34;40.48
49461;BME280;35355;49.198;-0.368;2023-05-17T10:00:19;102294.72;;;18.34;40.68
49461;BME280;35355;49.198;-0.368;2023-05-17T10:02:46;102292.22;;;18.38;40.64
49461;BME280;35355;49.198;-0.368;2023-05-17T10:05:14;102296.69;;;18.44;40.86
49461;BME280;35355;49.198;-0.368;2023-05-17T10:07:43;102289.75;;;18.47;40.86
49461;BME280;35355;49.198;-0.368;2023-05-17T10:10:10;102292.22;;;18.48;40.98
49461;BME280;35355;49.198;-0.368;2023-05-17T10:12:39;102289.75;;;18.52;41.28
49461;BME280;35355;49.198;-0.368;2023-05-17T10:15:05;102288.94;;;18.51;41.47
49461;BME280;35355;49.198;-0.368;2023-05-17T10:17:31;102295.25;;;18.57;41.42
49461;BME280;35355;49.198;-0.368;2023-05-17T10:19:59;102286.69;;;18.58;41.36
49461;BME280;35355;49.198;-0.368;2023-05-17T10:22:26;102289.19;;;18.60;41.18
49461;BME280;35355;49.198;-0.368;2023-05-17T10:24:54;102280.06;;;18.59;41.22
49461;BME280;35355;49.198;-0.368;2023-05-17T10:27:22;102285.31;;;18.61;40.95
49461;BME280;35355;49.198;-0.368;2023-05-17T10:29:48;102280.63;;;18.62;41.17
49461;BME280;35355;49.198;-0.368;2023-05-17T10:32:14;102283.13;;;18.63;41.62
49461;BME280;35355;49.198;-0.368;2023-05-17T10:34:41;102282.56;;;18.66;40.88
49461;BME280;35355;49.198;-0.368;2023-05-17T10:37:08;102283.66;;;18.60;40.96
49461;BME280;35355;49.198;-0.368;2023-05-17T10:39:34;102275.91;;;18.57;41.00
49461;BME280;35355;49.198;-0.368;2023-05-17T10:42:06;102283.09;;;18.58;41.36
49461;BME280;35355;49.198;-0.368;2023-05-17T10:44:33;102267.06;;;18.65;41.30
49461;BME280;35355;49.198;-0.368;2023-05-17T10:46:59;102262.06;;;18.67;41.43
49461;BME280;35355;49.198;-0.368;2023-05-17T10:49:29;102277.28;;;18.75;41.53
49461;BME280;35355;49.198;-0.368;2023-05-17T10:52:10;102259.56;;;18.76;42.31
49461;BME280;35355;49.198;-0.368;2023-05-17T10:54:39;102264.53;;;18.79;41.23
49461;BME280;35355;49.198;-0.368;2023-05-17T10:57:05;102257.09;;;18.80;41.17
49461;BME280;35355;49.198;-0.368;2023-05-17T10:59:31;102262.03;;;18.77;41.03
49461;BME280;35355;49.198;-0.368;2023-05-17T11:02:08;102258.47;;;18.77;41.86
49461;BME280;35355;49.198;-0.368;2023-05-17T11:04:39;102255.69;;;18.77;41.44
49461;BME280;35355;49.198;-0.368;2023-05-17T11:15:11;102255.94;;;18.91;42.08
49461;BME280;35355;49.198;-0.368;2023-05-17T11:22:55;102245.41;;;18.98;42.01
49461;BME280;35355;49.198;-0.368;2023-05-17T11:25:23;102255.66;;;18.98;41.24
49461;BME280;35355;49.198;-0.368;2023-05-17T11:27:50;102248.22;;;18.93;41.02
49461;BME280;35355;49.198;-0.368;2023-05-17T11:32:52;102242.16;;;18.86;41.57
49461;BME280;35355;49.198;-0.368;2023-05-17T11:35:22;102239.38;;;18.86;41.67
49461;BME280;35355;49.198;-0.368;2023-05-17T11:37:51;102243.81;;;18.87;41.50
49461;BME280;35355;49.198;-0.368;2023-05-17T11:40:26;102240.44;;;18.85;41.82
49461;BME280;35355;49.198;-0.368;2023-05-17T11:43:15;102243.25;;;18.80;42.59
49461;BME280;35355;49.198;-0.368;2023-05-17T11:45:42;102238.28;;;18.76;41.55
49461;BME280;35355;49.198;-0.368;2023-05-17T11:48:10;102233.31;;;18.73;41.38
49461;BME280;35355;49.198;-0.368;2023-05-17T11:50:37;102237.75;;;18.69;41.59
49461;BME280;35355;49.198;-0.368;2023-05-17T11:53:04;102237.75;;;18.69;41.72
49461;BME280;35355;49.198;-0.368;2023-05-17T11:55:32;102237.75;;;18.69;41.54
49461;BME280;35355;49.198;-0.368;2023-05-17T11:57:58;102241.59;;;18.68;41.56
49461;BME280;35355;49.198;-0.368;2023-05-17T12:00:24;102229.16;;;18.66;41.89
49461;BME280;35355;49.198;-0.368;2023-05-17T12:02:52;102227.25;;;18.66;41.73
49461;BME280;35355;49.198;-0.368;2023-05-17T12:05:20;102224.47;;;18.61;42.20
49461;BME280;35355;49.198;-0.368;2023-05-17T12:07:46;102242.16;;;18.65;41.83
49461;BME280;35355;49.198;-0.368;2023-05-17T12:10:13;102241.06;;;18.61;41.82
49461;BME280;35355;49.198;-0.368;2023-05-17T12:12:39;102231.13;;;18.55;42.01
49461;BME280;35355;49.198;-0.368;2023-05-17T12:15:06;102230.03;;;18.51;42.11
49461;BME280;35355;49.198;-0.368;2023-05-17T12:17:36;102226.72;;;18.49;42.44
49461;BME280;35355;49.198;-0.368;2023-05-17T12:20:08;102230.59;;;18.48;42.56
49461;BME280;35355;49.198;-0.368;2023-05-17T12:22:50;102237.50;;;18.45;43.11
49461;BME280;35355;49.198;-0.368;2023-05-17T12:25:19;102228.66;;;18.43;42.58
49461;BME280;35355;49.198;-0.368;2023-05-17T12:27:47;102234.44;;;18.47;42.29
49461;BME280;35355;49.198;-0.368;2023-05-17T12:30:14;102232.25;;;18.49;42.37
49461;BME280;35355;49.198;-0.368;2023-05-17T12:32:40;102220.34;;;18.48;42.42
49461;BME280;35355;49.198;-0.368;2023-05-17T12:35:06;102223.94;;;18.49;42.46
49461;BME280;35355;49.198;-0.368;2023-05-17T12:37:32;102222.28;;;18.48;42.63
49461;BME280;35355;49.198;-0.368;2023-05-17T12:39:58;102224.22;;;18.47;42.46
49461;BME280;35355;49.198;-0.368;2023-05-17T12:42:26;102224.22;;;18.47;42.45
49461;BME280;35355;49.198;-0.368;2023-05-17T12:44:52;102214.56;;;18.45;42.49
49461;BME280;35355;49.198;-0.368;2023-05-17T12:47:17;102220.38;;;18.43;42.53
49461;BME280;35355;49.198;-0.368;2023-05-17T12:49:55;102216.78;;;18.37;43.14
49461;BME280;35355;49.198;-0.368;2023-05-17T12:52:20;102215.13;;;18.41;43.07
49461;BME280;35355;49.198;-0.368;2023-05-17T12:54:46;102214.00;;;18.43;42.91
49461;BME280;35355;49.198;-0.368;2023-05-17T12:57:12;102219.81;;;18.41;42.64
49461;BME280;35355;49.198;-0.368;2023-05-17T12:59:47;102220.63;;;18.36;43.06
49461;BME280;35355;49.198;-0.368;2023-05-17T13:02:13;102228.09;;;18.36;42.77
49461;BME280;35355;49.198;-0.368;2023-05-17T13:04:39;102212.09;;;18.33;42.74
49461;BME280;35355;49.198;-0.368;2023-05-17T13:07:05;102214.59;;;18.29;42.80
49461;BME280;35355;49.198;-0.368;2023-05-17T13:09:32;102215.13;;;18.31;42.73